sensor_id;sensor_type;location;lat;lon;timestamp;P1;durP1;ratioP1;P2;durP2;ratioP2
10957;SDS011;5531;42.570;23.676;2023-03-01T00:01:54;5.70;;;5.13;;
10957;SDS011;5531;42.570;23.676;2023-03-01T00:04:23;4.55;;;4.15;;
10957;SDS011;5531;42.570;23.676;2023-03-01T00:06:52;4.43;;;3.90;;
10957;SDS011;5531;42.570;23.676;2023-03-01T00:09:21;4.25;;;3.75;;
10957;SDS011;5531;42.570;23.676;2023-03-01T00:11:50;3.35;;;3.13;;
10957;SDS011;5531;42.570;23.676;2023-03-01T00:14:19;3.08;;;2.88;;
10957;SDS011;5531;42.570;23.676;2023-03-01T00:16:51;3.38;;;3.08;;
10957;SDS011;5531;42.570;23.676;2023-03-01T00:19:20;3.72;;;3.13;;
10957;SDS011;5531;42.570;23.676;2023-03-01T00:21:50;3.78;;;3.47;;
10957;SDS011;5531;42.570;23.676;2023-03-01T00:24:19;4.40;;;4.10;;
10957;SDS011;5531;42.570;23.676;2023-03-01T00:26:48;6.35;;;5.78;;
10957;SDS011;5531;42.570;23.676;2023-03-01T00:29:17;7.93;;;7.13;;
10957;SDS011;5531;42.570;23.676;2023-03-01T00:31:46;8.35;;;7.55;;
10957;SDS011;5531;42.570;23.676;2023-03-01T00:34:17;7.60;;;6.90;;
10957;SDS011;5531;42.570;23.676;2023-03-01T00:36:46;7.45;;;6.80;;
10957;SDS011;5531;42.570;23.676;2023-03-01T00:39:15;7.55;;;6.85;;
10957;SDS011;5531;42.570;23.676;2023-03-01T00:41:44;6.00;;;5.40;;
10957;SDS011;5531;42.570;23.676;2023-03-01T00:44:13;5.60;;;5.00;;
10957;SDS011;5531;42.570;23.676;2023-03-01T00:46:42;5.00;;;4.57;;
10957;SDS011;5531;42.570;23.676;2023-03-01T00:49:11;4.82;;;4.40;;
10957;SDS011;5531;42.570;23.676;2023-03-01T00:51:43;4.28;;;3.97;;
10957;SDS011;5531;42.570;23.676;2023-03-01T00:54:12;3.85;;;3.55;;
10957;SDS011;5531;42.570;23.676;2023-03-01T00:56:40;4.65;;;4.25;;
10957;SDS011;5531;42.570;23.676;2023-03-01T00:59:10;3.88;;;3.58;;
10957;SDS011;5531;42.570;23.676;2023-03-01T01:01:39;3.55;;;3.25;;
10957;SDS011;5531;42.570;23.676;2023-03-01T01:04:08;3.85;;;3.55;;
10957;SDS011;5531;42.570;23.676;2023-03-01T01:06:40;4.25;;;3.92;;
10957;SDS011;5531;42.570;23.676;2023-03-01T01:09:14;4.95;;;4.35;;
10957;SDS011;5531;42.570;23.676;2023-03-01T01:11:45;5.45;;;5.05;;
10957;SDS011;5531;42.570;23.676;2023-03-01T01:14:15;3.22;;;3.03;;
10957;SDS011;5531;42.570;23.676;2023-03-01T01:16:45;2.80;;;2.60;;
10957;SDS011;5531;42.570;23.676;2023-03-01T01:19:14;2.70;;;2.50;;
10957;SDS011;5531;42.570;23.676;2023-03-01T01:21:46;3.25;;;2.97;;
10957;SDS011;5531;42.570;23.676;2023-03-01T01:24:15;3.28;;;3.08;;
10957;SDS011;5531;42.570;23.676;2023-03-01T01:26:44;4.35;;;3.92;;
10957;SDS011;5531;42.570;23.676;2023-03-01T01:29:14;5.32;;;4.82;;
10957;SDS011;5531;42.570;23.676;2023-03-01T01:31:42;5.47;;;4.75;;
10957;SDS011;5531;42.570;23.676;2023-03-01T01:34:13;7.13;;;6.40;;
10957;SDS011;5531;42.570;23.676;2023-03-01T01:36:46;8.82;;;7.07;;
10957;SDS011;5531;42.570;23.676;2023-03-01T01:39:18;9.43;;;8.35;;
10957;SDS011;5531;42.570;23.676;2023-03-01T01:41:47;12.35;;;8.50;;
10957;SDS011;5531;42.570;23.676;2023-03-01T01:44:17;18.55;;;10.32;;
10957;SDS011;5531;42.570;23.676;2023-03-01T01:46:49;12.05;;;8.48;;
10957;SDS011;5531;42.570;23.676;2023-03-01T01:49:25;10.25;;;7.43;;
10957;SDS011;5531;42.570;23.676;2023-03-01T01:52:09;23.85;;;7.22;;
10957;SDS011;5531;42.570;23.676;2023-03-01T01:54:42;14.68;;;6.32;;
10957;SDS011;5531;42.570;23.676;2023-03-01T01:57:16;39.63;;;5.78;;
10957;SDS011;5531;42.570;23.676;2023-03-01T01:59:50;28.05;;;5.57;;
10957;SDS011;5531;42.570;23.676;2023-03-01T02:02:20;80.40;;;8.00;;
10957;SDS011;5531;42.570;23.676;2023-03-01T02:04:49;55.80;;;7.05;;
10957;SDS011;5531;42.570;23.676;2023-03-01T02:07:31;47.55;;;6.75;;
10957;SDS011;5531;42.570;23.676;2023-03-01T02:10:01;89.85;;;9.15;;
10957;SDS011;5531;42.570;23.676;2023-03-01T02:12:30;24.63;;;5.65;;
10957;SDS011;5531;42.570;23.676;2023-03-01T02:15:00;17.45;;;4.60;;
10957;SDS011;5531;42.570;23.676;2023-03-01T02:17:29;25.08;;;5.15;;
10957;SDS011;5531;42.570;23.676;2023-03-01T02:20:02;31.83;;;5.05;;
10957;SDS011;5531;42.570;23.676;2023-03-01T02:22:41;29.38;;;4.40;;
10957;SDS011;5531;42.570;23.676;2023-03-01T02:25:22;39.50;;;5.45;;
10957;SDS011;5531;42.570;23.676;2023-03-01T02:28:05;29.27;;;4.20;;
10957;SDS011;5531;42.570;23.676;2023-03-01T02:30:43;29.95;;;4.43;;
10957;SDS011;5531;42.570;23.676;2023-03-01T02:33:28;38.08;;;5.13;;
10957;SDS011;5531;42.570;23.676;2023-03-01T02:36:01;28.40;;;4.25;;
10957;SDS011;5531;42.570;23.676;2023-03-01T02:38:33;64.63;;;5.43;;
10957;SDS011;5531;42.570;23.676;2023-03-01T02:41:02;20.05;;;4.20;;
10957;SDS011;5531;42.570;23.676;2023-03-01T02:43:34;39.13;;;4.68;;
10957;SDS011;5531;42.570;23.676;2023-03-01T02:46:06;27.70;;;6.00;;
10957;SDS011;5531;42.570;23.676;2023-03-01T02:48:44;31.40;;;4.35;;
10957;SDS011;5531;42.570;23.676;2023-03-01T02:54:16;49.63;;;5.25;;
10957;SDS011;5531;42.570;23.676;2023-03-01T02:56:50;162.63;;;7.60;;
10957;SDS011;5531;42.570;23.676;2023-03-01T02:59:20;103.65;;;6.55;;
10957;SDS011;5531;42.570;23.676;2023-03-01T03:01:55;94.22;;;6.93;;
10957;SDS011;5531;42.570;23.676;2023-03-01T03:04:24;134.02;;;9.88;;
10957;SDS011;5531;42.570;23.676;2023-03-01T03:06:53;134.65;;;8.90;;
10957;SDS011;5531;42.570;23.676;2023-03-01T03:09:22;174.02;;;8.57;;
10957;SDS011;5531;42.570;23.676;2023-03-01T03:11:51;127.97;;;7.25;;
10957;SDS011;5531;42.570;23.676;2023-03-01T03:14:20;127.53;;;8.38;;
10957;SDS011;5531;42.570;23.676;2023-03-01T03:16:49;106.38;;;7.65;;
10957;SDS011;5531;42.570;23.676;2023-03-01T03:19:21;108.43;;;7.10;;
10957;SDS011;5531;42.570;23.676;2023-03-01T03:21:50;52.25;;;5.43;;
10957;SDS011;5531;42.570;23.676;2023-03-01T03:24:19;97.20;;;7.05;;
10957;SDS011;5531;42.570;23.676;2023-03-01T03:26:48;111.05;;;7.13;;
10957;SDS011;5531;42.570;23.676;2023-03-01T03:29:17;80.72;;;6.28;;
10957;SDS011;5531;42.570;23.676;2023-03-01T03:31:45;78.25;;;6.43;;
10957;SDS011;5531;42.570;23.676;2023-03-01T03:34:14;43.70;;;5.10;;
10957;SDS011;5531;42.570;23.676;2023-03-01T03:36:46;24.63;;;4.95;;
10957;SDS011;5531;42.570;23.676;2023-03-01T03:39:15;27.63;;;4.88;;
10957;SDS011;5531;42.570;23.676;2023-03-01T03:41:45;33.83;;;5.40;;
10957;SDS011;5531;42.570;23.676;2023-03-01T03:44:14;20.48;;;5.15;;
10957;SDS011;5531;42.570;23.676;2023-03-01T03:46:43;41.88;;;5.40;;
10957;SDS011;5531;42.570;23.676;2023-03-01T03:49:12;41.90;;;6.05;;
10957;SDS011;5531;42.570;23.676;2023-03-01T03:51:41;18.95;;;4.93;;
10957;SDS011;5531;42.570;23.676;2023-03-01T03:54:13;58.17;;;6.35;;
10957;SDS011;5531;42.570;23.676;2023-03-01T03:56:42;34.50;;;6.32;;
10957;SDS011;5531;42.570;23.676;2023-03-01T03:59:11;23.58;;;6.03;;
10957;SDS011;5531;42.570;23.676;2023-03-01T04:01:41;26.52;;;6.32;;
10957;SDS011;5531;42.570;23.676;2023-03-01T04:04:10;33.40;;;6.53;;
10957;SDS011;5531;42.570;23.676;2023-03-01T04:06:43;27.30;;;6.47;;
10957;SDS011;5531;42.570;23.676;2023-03-01T04:09:16;15.82;;;5.60;;
10957;SDS011;5531;42.570;23.676;2023-03-01T04:11:45;19.40;;;6.13;;
10957;SDS011;5531;42.570;23.676;2023-03-01T04:14:15;32.85;;;6.65;;
10957;SDS011;5531;42.570;23.676;2023-03-01T04:16:44;15.18;;;6.15;;
10957;SDS011;5531;42.570;23.676;2023-03-01T04:19:13;12.13;;;6.03;;
10957;SDS011;5531;42.570;23.676;2023-03-01T04:21:42;17.75;;;7.05;;
10957;SDS011;5531;42.570;23.676;2023-03-01T04:24:11;54.17;;;8.50;;
10957;SDS011;5531;42.570;23.676;2023-03-01T04:26:43;67.05;;;8.57;;
10957;SDS011;5531;42.570;23.676;2023-03-01T04:29:12;33.38;;;6.03;;
10957;SDS011;5531;42.570;23.676;2023-03-01T04:31:41;23.85;;;6.00;;
10957;SDS011;5531;42.570;23.676;2023-03-01T04:34:10;18.90;;;5.55;;
10957;SDS011;5531;42.570;23.676;2023-03-01T04:36:39;29.13;;;4.47;;
10957;SDS011;5531;42.570;23.676;2023-03-01T04:39:08;15.70;;;4.00;;
10957;SDS011;5531;42.570;23.676;2023-03-01T04:41:37;16.52;;;3.70;;
10957;SDS011;5531;42.570;23.676;2023-03-01T04:44:11;11.80;;;4.38;;
10957;SDS011;5531;42.570;23.676;2023-03-01T04:46:40;13.00;;;4.10;;
10957;SDS011;5531;42.570;23.676;2023-03-01T04:49:09;13.15;;;4.30;;
10957;SDS011;5531;42.570;23.676;2023-03-01T04:51:38;7.68;;;4.10;;
10957;SDS011;5531;42.570;23.676;2023-03-01T04:54:07;7.05;;;4.60;;
10957;SDS011;5531;42.570;23.676;2023-03-01T04:56:36;6.57;;;5.22;;
10957;SDS011;5531;42.570;23.676;2023-03-01T04:59:05;8.85;;;6.00;;
10957;SDS011;5531;42.570;23.676;2023-03-01T05:01:38;6.40;;;4.90;;
10957;SDS011;5531;42.570;23.676;2023-03-01T05:04:08;8.25;;;7.40;;
10957;SDS011;5531;42.570;23.676;2023-03-01T05:06:38;7.53;;;5.47;;
10957;SDS011;5531;42.570;23.676;2023-03-01T05:09:07;47.65;;;42.45;;
10957;SDS011;5531;42.570;23.676;2023-03-01T05:11:36;41.88;;;36.28;;
10957;SDS011;5531;42.570;23.676;2023-03-01T05:14:06;6.70;;;6.00;;
10957;SDS011;5531;42.570;23.676;2023-03-01T05:16:38;5.65;;;5.15;;
10957;SDS011;5531;42.570;23.676;2023-03-01T05:19:07;5.80;;;5.20;;
10957;SDS011;5531;42.570;23.676;2023-03-01T05:21:40;6.20;;;4.80;;
10957;SDS011;5531;42.570;23.676;2023-03-01T05:24:22;6.78;;;5.10;;
10957;SDS011;5531;42.570;23.676;2023-03-01T05:26:52;26.08;;;23.52;;
10957;SDS011;5531;42.570;23.676;2023-03-01T05:29:21;8.40;;;7.60;;
10957;SDS011;5531;42.570;23.676;2023-03-01T05:31:55;5.72;;;5.22;;
10957;SDS011;5531;42.570;23.676;2023-03-01T05:34:27;16.00;;;14.48;;
10957;SDS011;5531;42.570;23.676;2023-03-01T05:36:58;6.00;;;5.43;;
10957;SDS011;5531;42.570;23.676;2023-03-01T05:39:28;5.72;;;5.22;;
10957;SDS011;5531;42.570;23.676;2023-03-01T05:41:59;5.63;;;5.13;;
10957;SDS011;5531;42.570;23.676;2023-03-01T05:44:29;5.63;;;5.13;;
10957;SDS011;5531;42.570;23.676;2023-03-01T05:47:01;6.15;;;5.55;;
10957;SDS011;5531;42.570;23.676;2023-03-01T05:49:31;6.97;;;6.38;;
10957;SDS011;5531;42.570;23.676;2023-03-01T05:52:00;7.25;;;6.47;;
10957;SDS011;5531;42.570;23.676;2023-03-01T05:54:30;6.20;;;5.60;;
10957;SDS011;5531;42.570;23.676;2023-03-01T05:56:59;5.80;;;5.30;;
10957;SDS011;5531;42.570;23.676;2023-03-01T05:59:28;5.18;;;4.68;;
10957;SDS011;5531;42.570;23.676;2023-03-01T06:01:57;4.60;;;4.20;;
10957;SDS011;5531;42.570;23.676;2023-03-01T06:04:29;4.57;;;4.18;;
10957;SDS011;5531;42.570;23.676;2023-03-01T06:06:58;3.58;;;3.28;;
10957;SDS011;5531;42.570;23.676;2023-03-01T06:09:27;4.78;;;4.38;;
10957;SDS011;5531;42.570;23.676;2023-03-01T06:11:57;4.03;;;3.63;;
10957;SDS011;5531;42.570;23.676;2023-03-01T06:14:26;3.88;;;3.58;;
10957;SDS011;5531;42.570;23.676;2023-03-01T06:16:55;4.80;;;4.22;;
10957;SDS011;5531;42.570;23.676;2023-03-01T06:19:24;4.00;;;3.30;;
10957;SDS011;5531;42.570;23.676;2023-03-01T06:21:56;2.97;;;2.70;;
10957;SDS011;5531;42.570;23.676;2023-03-01T06:24:26;3.20;;;2.50;;
10957;SDS011;5531;42.570;23.676;2023-03-01T06:26:55;3.00;;;2.80;;
10957;SDS011;5531;42.570;23.676;2023-03-01T06:29:24;2.65;;;2.45;;
10957;SDS011;5531;42.570;23.676;2023-03-01T06:31:53;2.78;;;2.40;;
10957;SDS011;5531;42.570;23.676;2023-03-01T06:34:23;3.67;;;2.65;;
10957;SDS011;5531;42.570;23.676;2023-03-01T06:36:52;2.72;;;2.53;;
10957;SDS011;5531;42.570;23.676;2023-03-01T06:39:23;3.20;;;2.90;;
10957;SDS011;5531;42.570;23.676;2023-03-01T06:41:53;3.95;;;3.50;;
10957;SDS011;5531;42.570;23.676;2023-03-01T06:44:21;7.55;;;6.15;;
10957;SDS011;5531;42.570;23.676;2023-03-01T06:46:51;3.42;;;3.13;;
10957;SDS011;5531;42.570;23.676;2023-03-01T06:49:20;4.78;;;3.50;;
10957;SDS011;5531;42.570;23.676;2023-03-01T06:51:49;4.05;;;3.22;;
10957;SDS011;5531;42.570;23.676;2023-03-01T06:54:18;3.97;;;3.58;;
10957;SDS011;5531;42.570;23.676;2023-03-01T06:56:50;3.80;;;3.25;;
10957;SDS011;5531;42.570;23.676;2023-03-01T06:59:22;6.00;;;4.78;;
10957;SDS011;5531;42.570;23.676;2023-03-01T07:01:51;6.88;;;5.03;;
10957;SDS011;5531;42.570;23.676;2023-03-01T07:04:20;5.78;;;4.05;;
10957;SDS011;5531;42.570;23.676;2023-03-01T07:06:49;5.28;;;4.05;;
10957;SDS011;5531;42.570;23.676;2023-03-01T07:09:20;5.35;;;4.22;;
10957;SDS011;5531;42.570;23.676;2023-03-01T07:11:52;4.32;;;3.75;;
10957;SDS011;5531;42.570;23.676;2023-03-01T07:14:21;4.25;;;3.75;;
10957;SDS011;5531;42.570;23.676;2023-03-01T07:16:51;4.63;;;3.50;;
10957;SDS011;5531;42.570;23.676;2023-03-01T07:19:20;3.10;;;2.80;;
10957;SDS011;5531;42.570;23.676;2023-03-01T07:21:50;2.92;;;2.40;;
10957;SDS011;5531;42.570;23.676;2023-03-01T07:24:21;3.78;;;3.10;;
10957;SDS011;5531;42.570;23.676;2023-03-01T07:26:57;2.83;;;2.63;;
10957;SDS011;5531;42.570;23.676;2023-03-01T07:29:26;3.65;;;3.00;;
10957;SDS011;5531;42.570;23.676;2023-03-01T07:31:55;2.45;;;2.25;;
10957;SDS011;5531;42.570;23.676;2023-03-01T07:34:24;5.13;;;4.70;;
10957;SDS011;5531;42.570;23.676;2023-03-01T07:36:53;3.05;;;2.75;;
10957;SDS011;5531;42.570;23.676;2023-03-01T07:39:22;2.50;;;2.28;;
10957;SDS011;5531;42.570;23.676;2023-03-01T07:41:51;2.90;;;2.38;;
10957;SDS011;5531;42.570;23.676;2023-03-01T07:44:23;3.13;;;2.83;;
10957;SDS011;5531;42.570;23.676;2023-03-01T07:46:53;3.88;;;2.85;;
10957;SDS011;5531;42.570;23.676;2023-03-01T07:49:23;4.40;;;4.00;;
10957;SDS011;5531;42.570;23.676;2023-03-01T07:51:53;3.90;;;3.17;;
10957;SDS011;5531;42.570;23.676;2023-03-01T07:54:23;3.30;;;2.97;;
10957;SDS011;5531;42.570;23.676;2023-03-01T07:56:52;5.88;;;4.88;;
10957;SDS011;5531;42.570;23.676;2023-03-01T07:59:23;3.55;;;3.25;;
10957;SDS011;5531;42.570;23.676;2023-03-01T08:01:54;3.80;;;3.40;;
10957;SDS011;5531;42.570;23.676;2023-03-01T08:04:23;3.28;;;2.95;;
10957;SDS011;5531;42.570;23.676;2023-03-01T08:06:52;2.72;;;2.53;;
10957;SDS011;5531;42.570;23.676;2023-03-01T08:09:22;3.13;;;2.80;;
10957;SDS011;5531;42.570;23.676;2023-03-01T08:11:51;3.40;;;2.63;;
10957;SDS011;5531;42.570;23.676;2023-03-01T08:14:23;3.85;;;3.38;;
10957;SDS011;5531;42.570;23.676;2023-03-01T08:16:52;3.33;;;3.03;;
10957;SDS011;5531;42.570;23.676;2023-03-01T08:19:21;7.85;;;7.15;;
10957;SDS011;5531;42.570;23.676;2023-03-01T08:21:50;2.58;;;1.70;;
10957;SDS011;5531;42.570;23.676;2023-03-01T08:24:19;9.35;;;8.45;;
10957;SDS011;5531;42.570;23.676;2023-03-01T08:26:48;2.40;;;2.20;;
10957;SDS011;5531;42.570;23.676;2023-03-01T08:29:17;2.50;;;2.30;;
10957;SDS011;5531;42.570;23.676;2023-03-01T08:31:48;1.95;;;1.75;;
10957;SDS011;5531;42.570;23.676;2023-03-01T08:34:18;2.67;;;1.90;;
10957;SDS011;5531;42.570;23.676;2023-03-01T08:36:47;2.90;;;2.53;;
10957;SDS011;5531;42.570;23.676;2023-03-01T08:39:18;2.50;;;2.20;;
10957;SDS011;5531;42.570;23.676;2023-03-01T08:41:48;3.40;;;3.10;;
10957;SDS011;5531;42.570;23.676;2023-03-01T08:44:17;1.58;;;1.30;;
10957;SDS011;5531;42.570;23.676;2023-03-01T08:46:49;2.05;;;1.85;;
10957;SDS011;5531;42.570;23.676;2023-03-01T08:49:20;4.28;;;3.97;;
10957;SDS011;5531;42.570;23.676;2023-03-01T08:51:50;6.18;;;5.57;;
10957;SDS011;5531;42.570;23.676;2023-03-01T08:54:20;7.63;;;7.03;;
10957;SDS011;5531;42.570;23.676;2023-03-01T08:56:50;2.10;;;1.90;;
10957;SDS011;5531;42.570;23.676;2023-03-01T08:59:19;1.92;;;1.73;;
10957;SDS011;5531;42.570;23.676;2023-03-01T09:01:50;1.52;;;1.42;;
10957;SDS011;5531;42.570;23.676;2023-03-01T09:04:19;1.40;;;1.30;;
10957;SDS011;5531;42.570;23.676;2023-03-01T09:06:48;20.63;;;18.80;;
10957;SDS011;5531;42.570;23.676;2023-03-01T09:09:17;2.33;;;2.13;;
10957;SDS011;5531;42.570;23.676;2023-03-01T09:11:46;0.80;;;0.80;;
10957;SDS011;5531;42.570;23.676;2023-03-01T09:14:16;1.10;;;1.00;;
10957;SDS011;5531;42.570;23.676;2023-03-01T09:16:45;2.00;;;1.90;;
10957;SDS011;5531;42.570;23.676;2023-03-01T09:19:17;0.90;;;0.85;;
10957;SDS011;5531;42.570;23.676;2023-03-01T09:21:46;1.80;;;1.70;;
10957;SDS011;5531;42.570;23.676;2023-03-01T09:24:22;1.10;;;1.00;;
10957;SDS011;5531;42.570;23.676;2023-03-01T09:26:55;2.78;;;2.58;;
10957;SDS011;5531;42.570;23.676;2023-03-01T09:29:24;1.63;;;1.10;;
10957;SDS011;5531;42.570;23.676;2023-03-01T09:31:54;1.13;;;1.08;;
10957;SDS011;5531;42.570;23.676;2023-03-01T09:34:26;1.20;;;1.10;;
10957;SDS011;5531;42.570;23.676;2023-03-01T09:36:57;1.10;;;1.00;;
10957;SDS011;5531;42.570;23.676;2023-03-01T09:39:27;0.98;;;0.82;;
10957;SDS011;5531;42.570;23.676;2023-03-01T09:41:58;1.60;;;1.50;;
10957;SDS011;5531;42.570;23.676;2023-03-01T09:44:34;2.28;;;1.70;;
10957;SDS011;5531;42.570;23.676;2023-03-01T09:47:09;1.17;;;1.08;;
10957;SDS011;5531;42.570;23.676;2023-03-01T09:49:48;0.90;;;0.90;;
10957;SDS011;5531;42.570;23.676;2023-03-01T09:52:28;2.25;;;2.05;;
10957;SDS011;5531;42.570;23.676;2023-03-01T09:55:04;1.30;;;1.20;;
10957;SDS011;5531;42.570;23.676;2023-03-01T09:57:41;1.30;;;1.20;;
10957;SDS011;5531;42.570;23.676;2023-03-01T10:00:19;1.05;;;0.80;;
10957;SDS011;5531;42.570;23.676;2023-03-01T10:02:57;1.50;;;1.40;;
10957;SDS011;5531;42.570;23.676;2023-03-01T10:05:38;2.00;;;1.90;;
10957;SDS011;5531;42.570;23.676;2023-03-01T10:08:21;1.30;;;1.20;;
10957;SDS011;5531;42.570;23.676;2023-03-01T10:11:01;1.30;;;1.20;;
10957;SDS011;5531;42.570;23.676;2023-03-01T10:13:34;1.35;;;1.25;;
10957;SDS011;5531;42.570;23.676;2023-03-01T10:16:15;1.20;;;1.10;;
10957;SDS011;5531;42.570;23.676;2023-03-01T10:18:47;1.30;;;1.20;;
10957;SDS011;5531;42.570;23.676;2023-03-01T10:21:26;1.13;;;1.13;;
10957;SDS011;5531;42.570;23.676;2023-03-01T10:23:58;1.58;;;1.48;;
10957;SDS011;5531;42.570;23.676;2023-03-01T10:26:43;1.63;;;1.25;;
10957;SDS011;5531;42.570;23.676;2023-03-01T10:29:16;1.48;;;1.20;;
10957;SDS011;5531;42.570;23.676;2023-03-01T10:31:51;1.20;;;1.10;;
10957;SDS011;5531;42.570;23.676;2023-03-01T10:34:21;4.32;;;4.03;;
10957;SDS011;5531;42.570;23.676;2023-03-01T10:37:00;1.67;;;1.58;;
10957;SDS011;5531;42.570;23.676;2023-03-01T10:39:40;5.53;;;5.03;;
10957;SDS011;5531;42.570;23.676;2023-03-01T10:42:26;9.40;;;8.32;;
10957;SDS011;5531;42.570;23.676;2023-03-01T10:44:57;2.42;;;2.08;;
10957;SDS011;5531;42.570;23.676;2023-03-01T10:47:27;1.40;;;1.30;;
10957;SDS011;5531;42.570;23.676;2023-03-01T10:49:57;1.30;;;1.20;;
10957;SDS011;5531;42.570;23.676;2023-03-01T10:52:35;1.33;;;1.23;;
10957;SDS011;5531;42.570;23.676;2023-03-01T10:58:07;2.33;;;1.40;;
10957;SDS011;5531;42.570;23.676;2023-03-01T11:00:48;2.70;;;1.33;;
10957;SDS011;5531;42.570;23.676;2023-03-01T11:03:19;2.30;;;1.60;;
10957;SDS011;5531;42.570;23.676;2023-03-01T11:06:01;2.47;;;1.40;;
10957;SDS011;5531;42.570;23.676;2023-03-01T11:08:37;1.98;;;1.50;;
10957;SDS011;5531;42.570;23.676;2023-03-01T11:11:19;2.60;;;2.30;;
10957;SDS011;5531;42.570;23.676;2023-03-01T11:13:55;2.53;;;1.45;;
10957;SDS011;5531;42.570;23.676;2023-03-01T11:16:31;2.42;;;1.67;;
10957;SDS011;5531;42.570;23.676;2023-03-01T11:19:16;3.42;;;2.95;;
10957;SDS011;5531;42.570;23.676;2023-03-01T11:21:50;4.20;;;2.03;;
10957;SDS011;5531;42.570;23.676;2023-03-01T11:24:28;1.90;;;1.58;;
10957;SDS011;5531;42.570;23.676;2023-03-01T11:27:14;1.75;;;1.60;;
10957;SDS011;5531;42.570;23.676;2023-03-01T11:29:48;2.10;;;1.50;;
10957;SDS011;5531;42.570;23.676;2023-03-01T11:32:23;2.72;;;2.50;;
10957;SDS011;5531;42.570;23.676;2023-03-01T11:34:55;1.85;;;1.40;;
10957;SDS011;5531;42.570;23.676;2023-03-01T11:37:32;1.60;;;1.40;;
10957;SDS011;5531;42.570;23.676;2023-03-01T11:40:10;2.20;;;1.60;;
10957;SDS011;5531;42.570;23.676;2023-03-01T11:42:48;3.05;;;1.70;;
10957;SDS011;5531;42.570;23.676;2023-03-01T11:45:26;3.08;;;1.70;;
10957;SDS011;5531;42.570;23.676;2023-03-01T11:48:13;2.85;;;1.88;;
10957;SDS011;5531;42.570;23.676;2023-03-01T11:50:57;2.83;;;1.73;;
10957;SDS011;5531;42.570;23.676;2023-03-01T11:53:38;2.08;;;1.80;;
10957;SDS011;5531;42.570;23.676;2023-03-01T11:56:24;3.42;;;2.45;;
10957;SDS011;5531;42.570;23.676;2023-03-01T11:59:02;2.10;;;1.65;;
10957;SDS011;5531;42.570;23.676;2023-03-01T12:01:45;2.10;;;1.80;;
10957;SDS011;5531;42.570;23.676;2023-03-01T12:07:26;2.95;;;2.40;;
10957;SDS011;5531;42.570;23.676;2023-03-01T12:10:20;3.03;;;1.90;;
10957;SDS011;5531;42.570;23.676;2023-03-01T12:13:13;2.17;;;1.65;;
10957;SDS011;5531;42.570;23.676;2023-03-01T12:16:11;4.32;;;1.70;;
10957;SDS011;5531;42.570;23.676;2023-03-01T12:18:54;3.05;;;2.20;;
10957;SDS011;5531;42.570;23.676;2023-03-01T12:21:38;2.25;;;1.67;;
10957;SDS011;5531;42.570;23.676;2023-03-01T12:27:22;1.80;;;1.50;;
10957;SDS011;5531;42.570;23.676;2023-03-01T12:30:09;2.65;;;1.50;;
10957;SDS011;5531;42.570;23.676;2023-03-01T12:32:51;6.90;;;6.20;;
10957;SDS011;5531;42.570;23.676;2023-03-01T12:35:37;2.50;;;1.92;;
10957;SDS011;5531;42.570;23.676;2023-03-01T12:38:25;1.70;;;1.60;;
10957;SDS011;5531;42.570;23.676;2023-03-01T12:41:11;2.42;;;1.80;;
10957;SDS011;5531;42.570;23.676;2023-03-01T12:44:00;3.35;;;1.50;;
10957;SDS011;5531;42.570;23.676;2023-03-01T12:46:41;1.50;;;1.40;;
10957;SDS011;5531;42.570;23.676;2023-03-01T12:49:31;1.90;;;1.50;;
10957;SDS011;5531;42.570;23.676;2023-03-01T12:52:07;2.58;;;1.85;;
10957;SDS011;5531;42.570;23.676;2023-03-01T12:54:43;1.77;;;1.50;;
10957;SDS011;5531;42.570;23.676;2023-03-01T12:57:15;3.22;;;1.50;;
10957;SDS011;5531;42.570;23.676;2023-03-01T12:59:59;2.75;;;1.70;;
10957;SDS011;5531;42.570;23.676;2023-03-01T13:02:43;2.35;;;1.50;;
10957;SDS011;5531;42.570;23.676;2023-03-01T13:05:31;2.75;;;1.60;;
10957;SDS011;5531;42.570;23.676;2023-03-01T13:08:08;1.92;;;1.58;;
10957;SDS011;5531;42.570;23.676;2023-03-01T13:10:46;2.05;;;1.58;;
10957;SDS011;5531;42.570;23.676;2023-03-01T13:13:19;1.90;;;1.20;;
10957;SDS011;5531;42.570;23.676;2023-03-01T13:15:50;4.30;;;1.70;;
10957;SDS011;5531;42.570;23.676;2023-03-01T13:18:32;2.65;;;1.65;;
10957;SDS011;5531;42.570;23.676;2023-03-01T13:21:02;1.83;;;1.40;;
10957;SDS011;5531;42.570;23.676;2023-03-01T13:23:36;2.53;;;1.52;;
10957;SDS011;5531;42.570;23.676;2023-03-01T13:26:14;4.15;;;2.03;;
10957;SDS011;5531;42.570;23.676;2023-03-01T13:28:48;2.75;;;1.60;;
10957;SDS011;5531;42.570;23.676;2023-03-01T13:37:24;5.15;;;1.70;;
10957;SDS011;5531;42.570;23.676;2023-03-01T13:40:05;3.00;;;1.83;;
10957;SDS011;5531;42.570;23.676;2023-03-01T13:42:49;2.58;;;1.75;;
10957;SDS011;5531;42.570;23.676;2023-03-01T13:45:20;2.85;;;2.00;;
10957;SDS011;5531;42.570;23.676;2023-03-01T13:47:55;3.67;;;1.65;;
10957;SDS011;5531;42.570;23.676;2023-03-01T13:50:31;2.75;;;1.88;;
10957;SDS011;5531;42.570;23.676;2023-03-01T13:53:05;4.32;;;2.22;;
10957;SDS011;5531;42.570;23.676;2023-03-01T13:55:37;3.28;;;2.05;;
10957;SDS011;5531;42.570;23.676;2023-03-01T13:58:18;5.65;;;2.38;;
10957;SDS011;5531;42.570;23.676;2023-03-01T14:00:55;4.15;;;2.20;;
10957;SDS011;5531;42.570;23.676;2023-03-01T14:03:25;3.72;;;2.25;;
10957;SDS011;5531;42.570;23.676;2023-03-01T14:06:04;3.17;;;1.98;;
10957;SDS011;5531;42.570;23.676;2023-03-01T14:08:35;5.00;;;2.53;;
10957;SDS011;5531;42.570;23.676;2023-03-01T14:14:10;2.38;;;2.03;;
10957;SDS011;5531;42.570;23.676;2023-03-01T14:16:55;3.97;;;2.17;;
10957;SDS011;5531;42.570;23.676;2023-03-01T14:19:34;4.22;;;1.98;;
10957;SDS011;5531;42.570;23.676;2023-03-01T14:22:10;2.75;;;1.80;;
10957;SDS011;5531;42.570;23.676;2023-03-01T14:24:46;5.30;;;2.17;;
10957;SDS011;5531;42.570;23.676;2023-03-01T14:27:17;2.60;;;1.83;;
10957;SDS011;5531;42.570;23.676;2023-03-01T14:29:54;3.95;;;2.22;;
10957;SDS011;5531;42.570;23.676;2023-03-01T14:32:25;5.35;;;2.58;;
10957;SDS011;5531;42.570;23.676;2023-03-01T14:34:56;3.03;;;2.15;;
10957;SDS011;5531;42.570;23.676;2023-03-01T14:37:29;4.15;;;2.50;;
10957;SDS011;5531;42.570;23.676;2023-03-01T14:40:00;4.00;;;2.80;;
10957;SDS011;5531;42.570;23.676;2023-03-01T14:42:34;4.82;;;2.30;;
10957;SDS011;5531;42.570;23.676;2023-03-01T14:45:04;2.88;;;2.25;;
10957;SDS011;5531;42.570;23.676;2023-03-01T14:47:36;3.38;;;2.40;;
10957;SDS011;5531;42.570;23.676;2023-03-01T14:50:07;6.63;;;2.50;;
10957;SDS011;5531;42.570;23.676;2023-03-01T14:52:46;4.72;;;2.67;;
10957;SDS011;5531;42.570;23.676;2023-03-01T14:55:19;3.47;;;2.25;;
10957;SDS011;5531;42.570;23.676;2023-03-01T14:57:50;4.75;;;2.55;;
10957;SDS011;5531;42.570;23.676;2023-03-01T15:00:21;3.40;;;2.50;;
10957;SDS011;5531;42.570;23.676;2023-03-01T15:02:53;10.02;;;6.10;;
10957;SDS011;5531;42.570;23.676;2023-03-01T15:05:25;5.75;;;3.63;;
10957;SDS011;5531;42.570;23.676;2023-03-01T15:08:01;4.05;;;3.20;;
10957;SDS011;5531;42.570;23.676;2023-03-01T15:10:32;4.75;;;4.00;;
10957;SDS011;5531;42.570;23.676;2023-03-01T15:13:11;4.13;;;3.63;;
10957;SDS011;5531;42.570;23.676;2023-03-01T15:15:42;4.50;;;3.60;;
10957;SDS011;5531;42.570;23.676;2023-03-01T15:18:16;5.28;;;3.70;;
10957;SDS011;5531;42.570;23.676;2023-03-01T15:20:47;5.22;;;4.00;;
10957;SDS011;5531;42.570;23.676;2023-03-01T15:23:22;5.82;;;3.38;;
10957;SDS011;5531;42.570;23.676;2023-03-01T15:25:53;4.88;;;3.90;;
10957;SDS011;5531;42.570;23.676;2023-03-01T15:28:25;5.53;;;4.05;;
10957;SDS011;5531;42.570;23.676;2023-03-01T15:30:57;4.80;;;3.90;;
10957;SDS011;5531;42.570;23.676;2023-03-01T15:33:36;6.13;;;4.13;;
10957;SDS011;5531;42.570;23.676;2023-03-01T15:39:03;8.00;;;5.30;;
10957;SDS011;5531;42.570;23.676;2023-03-01T15:41:37;7.47;;;5.07;;